Time;durP1;ratioP1;P1;durP2;ratioP2;P2;SDS_P1;SDS_P2;PMS_P1;PMS_P2;Temp;Humidity;BMP_temperature;BMP_pressure;BME280_temperature;BME280_humidity;BME280_pressure;Samples;Min_cycle;Max_cycle;Signal;HPM_P1;HPM_P2
2023/09/17 00:06:10;;;;;;;7.00;6.37;;;23.40;99.90;;;;;;4959272;28;20504;-85
2023/09/17 00:09:59;;;;;;;11.40;7.43;;;23.20;99.90;;;;;;4926637;28;20455;-86
2023/09/17 00:12:53;;;;;;;;;;;;;;;;;;;;;
2023/09/17 00:15:56;;;;;;;7.70;7.10;;;22.80;99.90;;;;;;4954215;29;20441;-85
2023/09/17 00:19:32;;;;;;;;;;;;;;;;;;;;;
2023/09/17 00:22:25;;;;;;;8.90;8.10;;;22.80;99.90;;;;;;4948134;29;20568;-86
2023/09/17 00:28:52;;;;;;;11.87;8.37;;;22.90;99.90;;;;;;4943196;29;20484;-88
2023/09/17 00:31:43;;;;;;;10.33;8.50;;;22.90;99.90;;;;;;4969149;29;20473;-87
2023/09/17 00:34:48;;;;;;;8.60;7.80;;;23.00;99.90;;;;;;4974283;28;20515;-86
2023/09/17 00:37:41;;;;;;;9.20;8.30;;;23.10;99.90;;;;;;4970461;29;20448;-88
2023/09/17 00:40:49;;;;;;;9.80;8.83;;;23.10;99.90;;;;;;4970741;29;20438;-88
2023/09/17 00:44:09;;;;;;;10.37;8.30;;;23.10;99.90;;;;;;4973163;28;20483;-87
2023/09/17 00:47:29;;;;;;;8.60;7.80;;;23.10;99.90;;;;;;4919268;29;20520;-85
2023/09/17 00:54:10;;;;;;;8.90;8.00;;;23.30;99.90;;;;;;4966779;28;20490;-87
2023/09/17 00:57:17;;;;;;;;;;;;;;;;;;;;;
2023/09/17 01:00:31;;;;;;;7.67;6.97;;;23.30;99.90;;;;;;4961237;29;20447;-86
2023/09/17 01:03:25;;;;;;;7.80;7.10;;;23.30;99.90;;;;;;4970217;28;20988;-87
2023/09/17 01:06:58;;;;;;;6.80;6.20;;;23.20;99.90;;;;;;4932712;29;20806;-87
2023/09/17 01:10:07;;;;;;;;;;;;;;;;;;;;;
2023/09/17 01:13:04;;;;;;;6.50;5.90;;;23.70;99.90;;;;;;4926966;29;20879;-87
2023/09/17 01:15:54;;;;;;;7.13;6.20;;;23.60;99.90;;;;;;4934195;29;20469;-86
2023/09/17 01:19:07;;;;;;;6.23;5.63;;;23.90;99.90;;;;;;4931818;29;20477;-86
2023/09/17 01:22:24;;;;;;;7.30;6.60;;;23.80;99.50;;;;;;4905159;29;20500;-86
2023/09/17 01:25:47;;;;;;;8.60;7.70;;;23.40;99.90;;;;;;4927642;29;20546;-85
2023/09/17 01:29:10;;;;;;;7.93;7.13;;;23.10;99.90;;;;;;4922101;29;21068;-86
2023/09/17 01:32:50;;;;;;;;;;;;;;;;;;;;;
2023/09/17 01:35:51;;;;;;;10.23;9.23;;;22.90;99.90;;;;;;4906216;29;20527;-87
2023/09/17 01:39:00;;;;;;;8.80;7.90;;;22.90;99.90;;;;;;4912429;29;20462;-86
2023/09/17 01:41:47;;;;;;;8.50;7.80;;;23.00;99.90;;;;;;4965064;28;20483;-86
2023/09/17 01:47:27;;;;;;;9.67;8.67;;;23.00;99.90;;;;;;5000684;28;20464;-88
2023/09/17 01:50:32;;;;;;;8.33;7.63;;;22.90;99.90;;;;;;4995282;28;20444;-87
2023/09/17 01:53:30;;;;;;;9.47;8.63;;;23.20;99.90;;;;;;5004400;28;20477;-86
2023/09/17 01:56:24;;;;;;;9.43;8.43;;;23.40;99.90;;;;;;5029409;28;20961;-86
2023/09/17 01:59:14;;;;;;;9.97;8.47;;;23.40;99.90;;;;;;5014280;28;20459;-87
2023/09/17 02:02:12;;;;;;;9.70;8.77;;;23.30;99.90;;;;;;5013833;28;20478;-85
2023/09/17 02:04:59;;;;;;;10.33;8.30;;;23.20;99.90;;;;;;5018751;28;20477;-83
2023/09/17 02:08:06;;;;;;;9.20;8.33;;;23.00;99.90;;;;;;5018786;28;20533;-85
2023/09/17 02:10:50;;;;;;;8.13;7.40;;;22.90;99.90;;;;;;4983504;28;20446;-84
2023/09/17 02:14:02;;;;;;;9.33;8.47;;;23.10;99.90;;;;;;5015902;28;20451;-85
2023/09/17 02:16:55;;;;;;;8.67;7.97;;;22.80;99.90;;;;;;5017720;28;20476;-86
2023/09/17 02:20:11;;;;;;;9.07;8.10;;;22.70;99.90;;;;;;5008439;28;20454;-87
2023/09/17 02:23:18;;;;;;;9.13;8.37;;;22.60;99.90;;;;;;5017972;28;20447;-87
2023/09/17 02:26:32;;;;;;;9.20;8.30;;;22.80;99.90;;;;;;5027329;28;20446;-86
2023/09/17 02:29:22;;;;;;;8.90;8.10;;;22.80;99.90;;;;;;5012478;28;20459;-87
2023/09/17 02:32:12;;;;;;;9.60;8.60;;;22.90;99.90;;;;;;5020034;28;20761;-87
2023/09/17 02:34:57;;;;;;;9.53;8.60;;;22.90;99.90;;;;;;5013065;28;20528;-87
2023/09/17 02:37:52;;;;;;;;;;;;;;;;;;;;;
2023/09/17 02:40:28;;;;;;;13.17;9.60;;;22.70;99.90;;;;;;5018757;28;20454;-87
2023/09/17 02:44:15;;;;;;;9.23;8.40;;;22.60;99.90;;;;;;5032574;28;20544;-86
2023/09/17 02:47:04;;;;;;;9.53;8.53;;;22.50;99.90;;;;;;5030539;28;20468;-88
2023/09/17 02:49:57;;;;;;;8.60;7.87;;;22.50;99.90;;;;;;5031443;28;20465;-87
2023/09/17 02:52:42;;;;;;;8.63;7.93;;;22.40;99.90;;;;;;5008906;28;20439;-85
2023/09/17 02:55:31;;;;;;;8.77;7.87;;;22.30;99.90;;;;;;5005431;28;20487;-85
2023/09/17 02:58:26;;;;;;;9.80;8.87;;;22.30;99.90;;;;;;5035436;28;20526;-88
2023/09/17 03:01:25;;;;;;;7.57;6.97;;;22.50;99.90;;;;;;5016768;28;20499;-86
2023/09/17 03:03:53;;;;;;;7.70;7.10;;;22.40;99.90;;;;;;5020128;28;20570;-86
2023/09/17 03:06:33;;;;;;;8.67;7.87;;;22.30;99.90;;;;;;5024122;28;20478;-87
2023/09/17 03:09:33;;;;;;;9.53;7.40;;;22.30;99.90;;;;;;5036015;28;20442;-89
2023/09/17 03:16:09;;;;;;;9.63;8.80;;;22.20;99.90;;;;;;5021509;28;20418;-86
2023/09/17 03:19:24;;;;;;;9.17;8.30;;;22.50;99.90;;;;;;5026397;28;20466;-87
2023/09/17 03:22:16;;;;;;;8.77;7.97;;;22.50;99.90;;;;;;5027726;28;20470;-90
2023/09/17 03:25:03;;;;;;;;;;;;;;;;;;;;;
2023/09/17 03:27:46;;;;;;;9.57;8.67;;;22.20;99.90;;;;;;5027024;28;20513;-89
2023/09/17 03:30:45;;;;;;;9.60;8.80;;;22.30;99.90;;;;;;5006408;28;20469;-86
2023/09/17 03:33:31;;;;;;;8.70;7.83;;;22.30;99.90;;;;;;5034689;28;20501;-88
2023/09/17 03:36:28;;;;;;;9.03;8.23;;;22.50;99.90;;;;;;5035691;28;20477;-90
2023/09/17 03:39:22;;;;;;;8.23;7.53;;;22.30;99.90;;;;;;5028944;28;20473;-88
2023/09/17 03:42:40;;;;;;;8.77;7.90;;;22.10;99.90;;;;;;5039101;28;20475;-87
2023/09/17 03:45:41;;;;;;;9.00;8.30;;;22.20;99.90;;;;;;5018511;28;20537;-86
2023/09/17 03:48:43;;;;;;;8.13;7.43;;;22.30;99.90;;;;;;5040594;28;20528;-88
2023/09/17 03:51:34;;;;;;;8.00;7.30;;;22.20;99.90;;;;;;5037303;28;20450;-86
2023/09/17 03:54:19;;;;;;;8.20;7.10;;;22.10;99.90;;;;;;5040137;28;20536;-87
2023/09/17 03:57:04;;;;;;;8.60;7.80;;;22.50;99.90;;;;;;5017482;28;20479;-87
2023/09/17 04:00:27;;;;;;;8.60;7.87;;;22.60;99.90;;;;;;5015899;28;21084;-86
2023/09/17 04:03:08;;;;;;;9.10;8.30;;;22.60;99.90;;;;;;5021913;28;21012;-87
2023/09/17 04:06:11;;;;;;;;;;;;;;;;;;;;;
2023/09/17 04:09:09;;;;;;;9.17;8.37;;;22.30;99.90;;;;;;5017786;28;20468;-85
2023/09/17 04:11:43;;;;;;;10.07;9.07;;;22.30;99.90;;;;;;5015898;28;20873;-86
2023/09/17 04:14:38;;;;;;;9.00;8.20;;;22.30;99.90;;;;;;5025825;28;20846;-86
2023/09/17 04:17:41;;;;;;;10.10;9.20;;;22.20;99.90;;;;;;5019256;28;20849;-86
2023/09/17 04:20:35;;;;;;;8.77;7.87;;;22.10;99.90;;;;;;5006314;28;20481;-86
2023/09/17 04:23:37;;;;;;;14.30;9.07;;;22.00;99.90;;;;;;5012529;28;20473;-86
2023/09/17 04:26:36;;;;;;;;;;;;;;;;;;;;;
2023/09/17 04:29:20;;;;;;;8.30;7.60;;;22.00;99.90;;;;;;5010508;28;20922;-85
2023/09/17 04:32:14;;;;;;;9.10;8.30;;;22.00;99.90;;;;;;5014548;28;20550;-87
2023/09/17 04:34:55;;;;;;;8.07;7.33;;;22.10;99.90;;;;;;5006382;28;20458;-86
2023/09/17 04:37:59;;;;;;;8.20;7.40;;;21.90;99.90;;;;;;5001342;28;20439;-87
2023/09/17 04:40:47;;;;;;;8.13;7.43;;;21.80;99.90;;;;;;5011031;28;20945;-88
2023/09/17 04:44:02;;;;;;;;;;;;;;;;;;;;;
2023/09/17 04:47:26;;;;;;;8.17;7.47;;;22.00;99.90;;;;;;4988782;28;20469;-86
2023/09/17 04:50:35;;;;;;;7.80;7.10;;;21.90;99.90;;;;;;4990453;28;20466;-87
2023/09/17 04:53:25;;;;;;;8.53;7.67;;;22.00;99.90;;;;;;5011397;28;20454;-86
2023/09/17 04:56:37;;;;;;;10.27;8.37;;;22.20;99.90;;;;;;5012978;28;20462;-86
2023/09/17 04:59:47;;;;;;;9.63;8.70;;;22.10;99.90;;;;;;5018827;28;20462;-85
2023/09/17 05:02:57;;;;;;;9.30;8.40;;;22.10;99.90;;;;;;4940411;29;20489;-86
2023/09/17 05:06:09;;;;;;;10.83;9.07;;;21.90;99.90;;;;;;4917270;29;20528;-85
2023/09/17 05:12:25;;;;;;;11.53;7.70;;;21.50;99.90;;;;;;4941386;29;20465;-86
2023/09/17 05:15:21;;;;;;;8.43;7.73;;;21.50;99.90;;;;;;5030279;22;20601;-87
2023/09/17 05:18:36;;;;;;;9.30;8.50;;;21.50;99.90;;;;;;5002348;28;20482;-87
2023/09/17 05:21:42;;;;;;;8.40;7.70;;;21.50;99.90;;;;;;4997730;28;20455;-86
2023/09/17 05:28:06;;;;;;;7.80;7.13;;;21.30;99.90;;;;;;5003341;28;20411;-85
2023/09/17 05:31:15;;;;;;;;;;;;;;;;;;;;;
2023/09/17 05:35:02;;;;;;;7.93;7.00;;;21.50;99.90;;;;;;4992569;28;21198;-85
2023/09/17 05:41:42;;;;;;;;;;;;;;;;;;;;;
2023/09/17 05:45:19;;;;;;;9.27;7.70;;;21.60;99.90;;;;;;4985499;28;20479;-85
2023/09/17 05:48:17;;;;;;;9.37;8.47;;;21.50;99.90;;;;;;5000388;28;20534;-85
2023/09/17 05:54:45;;;;;;;9.80;8.83;;;21.50;99.90;;;;;;5094158;23;20494;-88
2023/09/17 05:57:52;;;;;;;8.53;7.83;;;21.60;99.90;;;;;;5036890;28;20452;-89
2023/09/17 06:00:58;;;;;;;9.13;8.23;;;21.50;99.90;;;;;;5037275;28;20421;-87
2023/09/17 06:04:25;;;;;;;8.77;7.97;;;21.70;99.90;;;;;;5034977;28;20498;-88
2023/09/17 06:07:50;;;;;;;;;;;;;;;;;;;;;
2023/09/17 06:10:42;;;;;;;8.37;7.47;;;21.90;99.90;;;;;;5017857;28;20439;-86
2023/09/17 06:14:13;;;;;;;8.07;7.37;;;23.40;99.90;;;;;;5044884;23;20468;-87
2023/09/17 06:20:42;;;;;;;7.27;6.67;;;26.80;96.40;;;;;;5006652;28;20450;-85
2023/09/17 06:24:25;;;;;;;6.43;5.83;;;27.90;94.10;;;;;;4985234;28;20482;-87
2023/09/17 06:27:44;;;;;;;;;;;;;;;;;;;;;
2023/09/17 06:34:39;;;;;;;6.97;6.37;;;29.40;89.00;;;;;;4928537;29;20581;-85
2023/09/17 06:38:17;;;;;;;6.53;5.90;;;28.90;87.80;;;;;;4916088;29;20468;-88
2023/09/17 06:41:27;;;;;;;6.50;6.00;;;29.30;88.10;;;;;;4902571;29;20551;-87
2023/09/17 06:52:34;;;;;;;7.33;6.70;;;24.30;98.90;;;;;;5034156;23;20526;-85
2023/09/17 07:06:39;;;;;;;7.40;6.70;;;28.90;84.30;;;;;;4978321;28;20456;-85
2023/09/17 07:09:28;;;;;;;8.40;7.60;;;26.20;92.90;;;;;;4932735;29;20453;-86
2023/09/17 07:16:24;;;;;;;6.00;5.50;;;24.50;99.30;;;;;;4906025;29;20430;-86
2023/09/17 07:19:24;;;;;;;;;;;;;;;;;;;;;
2023/09/17 07:23:01;;;;;;;6.93;5.47;;;30.70;85.10;;;;;;4827984;29;20482;-86
2023/09/17 07:40:22;;;;;;;5.00;4.60;;;33.90;64.10;;;;;;1387973;22;20748;-85
2023/09/17 07:50:43;;;;;;;3.83;3.53;;;33.20;63.80;;;;;;4961358;28;20464;-86
2023/09/17 07:56:54;;;;;;;5.17;4.40;;;34.40;59.40;;;;;;5778188;22;20468;-86
2023/09/17 08:07:29;;;;;;;4.93;3.57;;;35.00;57.00;;;;;;4986190;28;20468;-86
2023/09/17 08:10:35;;;;;;;4.50;4.10;;;34.70;57.50;;;;;;5034349;28;20433;-85
2023/09/17 08:17:28;;;;;;;;;;;;;;;;;;;;;
2023/09/17 08:24:36;;;;;;;4.87;4.20;;;30.10;66.40;;;;;;5053546;28;20477;-89
2023/09/17 08:28:03;;;;;;;4.00;3.60;;;27.80;76.80;;;;;;5023485;28;20450;-87
2023/09/17 08:44:21;;;;;;;;;;;;;;;;;;;;;
2023/09/17 08:47:52;;;;;;;5.53;4.70;;;25.70;92.90;;;;;;4986635;28;20465;-84
2023/09/17 08:51:14;;;;;;;;;;;;;;;;;;;;;
2023/09/17 08:54:41;;;;;;;4.20;3.80;;;25.50;94.20;;;;;;4998547;28;20480;-86
2023/09/17 08:58:21;;;;;;;5.07;4.07;;;25.60;94.20;;;;;;5047772;28;21004;-88
2023/09/17 09:01:19;;;;;;;4.70;4.30;;;25.60;94.00;;;;;;5036915;28;20460;-88
2023/09/17 09:08:48;;;;;;;4.07;3.77;;;25.40;94.20;;;;;;5051349;28;20444;-87
2023/09/17 09:12:18;;;;;;;4.83;4.43;;;25.50;93.80;;;;;;5040710;28;20448;-83
2023/09/17 09:15:47;;;;;;;5.17;3.83;;;25.70;94.00;;;;;;5043746;28;20479;-85
2023/09/17 09:33:10;;;;;;;;;;;;;;;;;;;;;
2023/09/17 09:36:31;;;;;;;;;;;;;;;;;;;;;
2023/09/17 09:39:32;;;;;;;3.87;3.57;;;25.50;94.10;;;;;;6174834;23;20962;-86
2023/09/17 09:42:52;;;;;;;4.13;3.77;;;26.80;92.10;;;;;;6157649;23;20501;-86
2023/09/17 09:45:49;;;;;;;3.83;3.50;;;28.40;88.50;;;;;;6133543;23;20458;-86
2023/09/17 09:49:16;;;;;;;;;;;;;;;;;;;;;
2023/09/17 09:55:41;;;;;;;3.47;3.10;;;31.60;70.90;;;;;;6175854;23;20423;-85
2023/09/17 09:59:06;;;;;;;3.70;3.40;;;32.60;65.80;;;;;;6181141;23;20441;-88
2023/09/17 10:02:24;;;;;;;2.97;2.73;;;33.00;63.70;;;;;;6135093;23;20468;-87
2023/09/17 10:05:51;;;;;;;3.60;3.40;;;32.80;61.70;;;;;;6175645;23;20750;-86
2023/09/17 10:09:41;;;;;;;2.90;2.70;;;33.30;60.50;;;;;;6153301;23;20434;-86
2023/09/17 10:12:44;;;;;;;3.07;2.77;;;33.30;58.80;;;;;;6170065;23;20481;-85
2023/09/17 10:36:07;;;;;;;;;;;;;;;;;;;;;
2023/09/17 10:50:25;;;;;;;3.00;2.70;;;32.20;59.10;;;;;;5014997;28;20533;-85
2023/09/17 11:13:16;;;;;;;;;;;;;;;;;;;;;
2023/09/17 11:19:30;;;;;;;2.90;2.70;;;31.60;59.80;;;;;;5239188;22;20490;-85
2023/09/17 11:22:37;;;;;;;3.40;2.30;;;31.80;59.70;;;;;;4968845;28;20507;-85
2023/09/17 11:25:51;;;;;;;2.63;2.43;;;32.50;57.80;;;;;;5035797;28;20481;-85
2023/09/17 11:32:39;;;;;;;2.60;2.40;;;32.40;57.60;;;;;;4996525;28;20470;-87
2023/09/17 11:40:03;;;;;;;2.60;2.40;;;32.80;57.00;;;;;;4928989;29;20455;-86
2023/09/17 11:46:26;;;;;;;2.83;2.60;;;33.20;55.30;;;;;;5345182;23;20491;-86
2023/09/17 11:53:14;;;;;;;2.17;2.03;;;34.10;53.70;;;;;;5028064;28;20464;-85
2023/09/17 11:56:10;;;;;;;2.67;2.47;;;34.10;53.30;;;;;;4989922;28;20470;-86
2023/09/17 11:59:16;;;;;;;2.60;2.50;;;34.10;53.70;;;;;;4986472;28;20460;-86
2023/09/17 12:06:16;;;;;;;1.83;1.73;;;32.50;55.30;;;;;;5033488;23;20483;-90
2023/09/17 12:13:18;;;;;;;3.10;2.90;;;33.50;53.50;;;;;;4948505;29;20457;-87
2023/09/17 12:17:13;;;;;;;2.70;2.20;;;33.70;53.90;;;;;;4984366;28;20471;-85
2023/09/17 12:24:41;;;;;;;3.03;2.50;;;32.70;54.70;;;;;;4779355;30;20485;-86
2023/09/17 12:30:49;;;;;;;2.13;1.93;;;32.50;55.40;;;;;;4867191;29;20429;-86
2023/09/17 12:40:31;;;;;;;2.90;2.70;;;31.30;56.90;;;;;;4861734;29;20521;-86
2023/09/17 12:43:52;;;;;;;3.63;2.13;;;31.50;57.20;;;;;;4828362;29;20840;-83
2023/09/17 12:47:10;;;;;;;2.33;2.23;;;31.40;57.30;;;;;;4815112;29;20939;-87
2023/09/17 12:50:06;;;;;;;3.53;1.90;;;31.60;55.70;;;;;;4822330;29;20449;-85
2023/09/17 12:56:22;;;;;;;2.07;1.87;;;32.10;54.10;;;;;;4901409;29;20843;-87
2023/09/17 12:59:17;;;;;;;3.20;1.93;;;31.90;54.10;;;;;;4871194;29;20482;-85
2023/09/17 13:02:50;;;;;;;;;;;;;;;;;;;;;
2023/09/17 13:06:11;;;;;;;1.73;1.63;;;32.00;53.50;;;;;;4890238;29;20436;-86
2023/09/17 13:23:15;;;;;;;3.37;2.17;;;31.80;54.20;;;;;;5015635;28;20422;-85
2023/09/17 13:26:26;;;;;;;;;;;;;;;;;;;;;
2023/09/17 13:29:31;;;;;;;2.50;1.90;;;31.30;54.60;;;;;;4973813;29;20464;-87
2023/09/17 13:32:45;;;;;;;;;;;;;;;;;;;;;
2023/09/17 13:39:59;;;;;;;;;;;;;;;;;;;;;
2023/09/17 13:47:05;;;;;;;2.73;2.03;;;31.30;55.00;;;;;;4914030;29;20422;-86
2023/09/17 13:50:18;;;;;;;2.73;1.70;;;31.10;55.40;;;;;;4910395;29;20459;-87
2023/09/17 14:05:24;;;;;;;;;;;;;;;;;;;;;
2023/09/17 14:08:34;;;;;;;1.70;1.60;;;31.00;56.20;;;;;;5017009;28;20504;-86
2023/09/17 14:11:32;;;;;;;2.10;1.97;;;30.80;56.00;;;;;;5017282;28;20457;-87
2023/09/17 14:16:02;;;;;;;1.87;1.77;;;30.80;56.50;;;;;;5012041;28;20481;-85
2023/09/17 14:22:01;;;;;;;1.47;1.37;;;30.70;56.40;;;;;;4934671;29;20501;-86
2023/09/17 15:06:04;;;;;;;2.40;1.60;;;30.40;58.50;;;;;;5078320;28;20731;-88
2023/09/17 15:09:05;;;;;;;2.57;1.53;;;30.30;58.80;;;;;;5050301;28;20451;-86
2023/09/17 15:12:52;;;;;;;3.00;1.63;;;30.30;59.00;;;;;;5052092;28;20555;-86
2023/09/17 15:15:52;;;;;;;1.80;1.70;;;30.20;59.10;;;;;;5227324;22;20537;-86
2023/09/17 15:22:17;;;;;;;1.93;1.60;;;30.20;59.60;;;;;;5055745;28;20425;-86
2023/09/17 15:25:49;;;;;;;1.90;1.80;;;30.10;60.50;;;;;;5074912;28;20485;-87
2023/09/17 15:29:01;;;;;;;;;;;;;;;;;;;;;
2023/09/17 15:39:24;;;;;;;2.00;1.87;;;30.20;60.90;;;;;;5105188;28;20471;-87
2023/09/17 15:46:27;;;;;;;2.00;1.80;;;29.80;62.90;;;;;;955494;26;20901;-86
2023/09/17 15:49:20;;;;;;;2.00;1.90;;;29.80;63.00;;;;;;5059738;28;20465;-86
2023/09/17 15:52:36;;;;;;;4.30;3.40;;;29.90;63.30;;;;;;5054823;28;20490;-86
2023/09/17 15:55:20;;;;;;;2.10;1.90;;;30.20;62.10;;;;;;5039097;28;20465;-86
2023/09/17 15:58:47;;;;;;;2.87;2.67;;;30.10;62.70;;;;;;5041592;28;20465;-85
2023/09/17 16:09:52;;;;;;;;;;;;;;;;;;;;;
2023/09/17 16:16:29;;;;;;;2.20;1.97;;;29.60;64.00;;;;;;4245344;26;20468;-86
2023/09/17 16:32:15;;;;;;;2.47;2.10;;;29.10;66.40;;;;;;4930589;28;20740;-86
2023/09/17 16:36:07;;;;;;;3.43;2.23;;;29.10;66.80;;;;;;5248936;22;20477;-87
2023/09/17 16:42:52;;;;;;;2.73;2.03;;;29.30;66.40;;;;;;4945114;29;20476;-84
2023/09/17 16:45:50;;;;;;;2.50;2.13;;;29.10;67.40;;;;;;4905139;29;20502;-85
2023/09/17 16:49:11;;;;;;;2.40;2.20;;;29.10;67.40;;;;;;4937755;29;20449;-86
2023/09/17 16:52:50;;;;;;;2.70;2.30;;;29.40;66.70;;;;;;4999189;28;20502;-89
2023/09/17 16:56:12;;;;;;;4.43;2.70;;;29.30;66.90;;;;;;5726589;22;20493;-88
2023/09/17 16:59:09;;;;;;;2.43;2.10;;;29.40;66.80;;;;;;5015408;28;20514;-88
2023/09/17 17:24:11;;;;;;;;;;;;;;;;;;;;;
2023/09/17 17:27:34;;;;;;;2.80;2.57;;;28.50;72.20;;;;;;4968807;28;20522;-84
2023/09/17 17:31:17;;;;;;;3.63;3.33;;;28.40;72.70;;;;;;4897849;29;21011;-86
2023/09/17 17:45:53;;;;;;;3.50;3.03;;;28.40;73.00;;;;;;5235214;22;20607;-84
2023/09/17 17:49:16;;;;;;;3.13;2.93;;;28.30;73.60;;;;;;5037217;28;20448;-87
2023/09/17 17:52:38;;;;;;;3.50;3.10;;;28.20;74.70;;;;;;5019956;28;20546;-85
2023/09/17 17:56:20;;;;;;;5.73;4.57;;;28.10;75.80;;;;;;4934521;29;20454;-85
2023/09/17 17:59:04;;;;;;;5.60;4.20;;;28.00;77.00;;;;;;4913553;29;20517;-84
2023/09/17 18:05:57;;;;;;;3.53;3.23;;;27.90;78.60;;;;;;5090305;22;20479;-86
2023/09/17 18:09:15;;;;;;;;;;;;;;;;;;;;;
2023/09/17 18:12:43;;;;;;;2.63;2.43;;;28.00;78.20;;;;;;4894003;29;20423;-84
2023/09/17 18:15:38;;;;;;;2.93;2.63;;;27.90;78.10;;;;;;5009154;23;20562;-88
2023/09/17 18:18:28;;;;;;;3.30;3.00;;;27.80;78.30;;;;;;5019207;28;20473;-85
2023/09/17 18:21:26;;;;;;;4.20;3.50;;;27.60;79.20;;;;;;4959471;28;20475;-86
2023/09/17 18:24:28;;;;;;;3.97;3.23;;;27.50;80.20;;;;;;5005985;28;20562;-85
2023/09/17 18:30:38;;;;;;;3.50;3.13;;;27.70;80.90;;;;;;5018624;28;20639;-86
2023/09/17 18:34:26;;;;;;;3.53;3.23;;;27.70;80.70;;;;;;5004381;28;20514;-87
2023/09/17 18:37:26;;;;;;;3.33;3.13;;;27.70;80.90;;;;;;4997786;28;20470;-85
2023/09/17 18:40:25;;;;;;;3.30;3.00;;;27.70;81.80;;;;;;4968953;28;20530;-87
2023/09/17 18:43:39;;;;;;;3.87;3.27;;;27.50;82.60;;;;;;4976594;28;20448;-87
2023/09/17 18:46:44;;;;;;;;;;;;;;;;;;;;;
2023/09/17 18:53:15;;;;;;;6.10;4.17;;;27.20;85.30;;;;;;5032916;28;20449;-86
2023/09/17 18:56:52;;;;;;;3.83;3.43;;;27.20;85.10;;;;;;5000436;28;21014;-86
2023/09/17 19:03:20;;;;;;;3.77;3.47;;;27.00;86.70;;;;;;4998072;28;20474;-87
2023/09/17 19:06:27;;;;;;;5.33;3.67;;;26.80;88.00;;;;;;4986226;28;20514;-85
2023/09/17 19:09:22;;;;;;;3.20;3.00;;;26.80;88.90;;;;;;4986369;28;20452;-85
2023/09/17 19:12:20;;;;;;;3.93;3.20;;;26.70;89.70;;;;;;4986901;28;20613;-87
2023/09/17 19:18:12;;;;;;;3.80;3.50;;;26.40;91.10;;;;;;5458399;23;20482;-87
2023/09/17 19:21:27;;;;;;;4.27;3.40;;;26.40;91.50;;;;;;5002925;28;20455;-86
2023/09/17 19:24:39;;;;;;;5.30;3.70;;;26.50;91.40;;;;;;5002390;28;20471;-87
2023/09/17 19:31:16;;;;;;;3.67;3.37;;;26.60;91.20;;;;;;4997035;28;20506;-85
2023/09/17 19:34:48;;;;;;;4.00;3.60;;;26.60;91.20;;;;;;4986456;28;20493;-85
2023/09/17 19:37:59;;;;;;;4.03;3.30;;;26.50;91.40;;;;;;4975076;28;20461;-85
2023/09/17 19:40:52;;;;;;;3.27;2.97;;;26.50;91.70;;;;;;4985572;28;20427;-85
2023/09/17 19:44:38;;;;;;;3.47;3.17;;;26.50;92.00;;;;;;4909910;29;20470;-88
2023/09/17 19:47:46;;;;;;;6.33;3.17;;;26.40;92.20;;;;;;4872213;29;20496;-86
2023/09/17 19:50:36;;;;;;;4.50;3.40;;;26.30;92.60;;;;;;4853272;29;20475;-88
2023/09/17 19:56:05;;;;;;;3.30;3.00;;;26.00;93.20;;;;;;5018011;22;20493;-85
2023/09/17 19:59:59;;;;;;;3.53;3.20;;;25.90;93.60;;;;;;5012540;28;20543;-87
2023/09/17 20:03:31;;;;;;;4.73;3.50;;;25.90;93.90;;;;;;5002119;28;20430;-87
2023/09/17 20:07:07;;;;;;;6.53;4.37;;;25.90;94.10;;;;;;5137158;23;20515;-85
2023/09/17 20:10:19;;;;;;;5.40;3.50;;;25.80;94.30;;;;;;5014826;28;20462;-88
2023/09/17 20:16:04;;;;;;;5.00;3.80;;;25.70;94.80;;;;;;5019855;22;20475;-87
2023/09/17 20:19:36;;;;;;;3.73;3.37;;;25.80;94.70;;;;;;4995311;28;20200;-85
2023/09/17 20:22:39;;;;;;;3.83;3.53;;;25.80;94.70;;;;;;4968678;28;20447;-87
2023/09/17 20:29:53;;;;;;;4.23;3.80;;;25.70;95.00;;;;;;5015459;28;20533;-86
2023/09/17 20:33:01;;;;;;;3.53;3.30;;;25.50;95.20;;;;;;4931428;28;20462;-86
2023/09/17 20:36:31;;;;;;;;;;;;;;;;;;;;;
2023/09/17 20:39:59;;;;;;;4.67;4.27;;;25.20;96.20;;;;;;5020587;28;20442;-86
2023/09/17 20:43:05;;;;;;;;;;;;;;;;;;;;;
2023/09/17 20:50:12;;;;;;;3.80;3.50;;;25.10;96.80;;;;;;5029353;28;20424;-85
2023/09/17 20:57:20;;;;;;;4.30;3.90;;;25.60;96.00;;;;;;4991511;28;20439;-86
2023/09/17 21:00:22;;;;;;;4.10;3.70;;;25.20;96.40;;;;;;5011871;28;20474;-87
2023/09/17 21:03:15;;;;;;;4.43;4.13;;;25.10;96.90;;;;;;5002505;28;20442;-88
2023/09/17 21:16:45;;;;;;;4.80;4.27;;;25.20;97.00;;;;;;2848527;23;20470;-86
2023/09/17 21:25:52;;;;;;;4.40;4.10;;;25.10;97.60;;;;;;5237299;23;21013;-88
2023/09/17 21:34:41;;;;;;;;;;;;;;;;;;;;;
2023/09/17 21:38:20;;;;;;;5.93;4.30;;;25.20;97.60;;;;;;5001931;28;20455;-84
2023/09/17 21:40:47;;;;;;;7.60;4.97;;;25.20;97.40;;;;;;5011465;28;20476;-87
2023/09/17 21:45:57;;;;;;;8.90;4.70;;;25.10;97.40;;;;;;4982108;28;20487;-85
2023/09/17 21:48:56;;;;;;;7.03;5.30;;;25.10;97.60;;;;;;4968538;28;20456;-85
2023/09/17 21:51:46;;;;;;;5.80;5.20;;;25.20;97.40;;;;;;4993640;28;20435;-86
2023/09/17 21:54:33;;;;;;;5.33;4.67;;;25.20;97.50;;;;;;5124135;23;20563;-87
2023/09/17 21:57:37;;;;;;;6.10;5.07;;;25.10;97.60;;;;;;5009065;28;20486;-85
2023/09/17 22:01:20;;;;;;;4.60;4.20;;;25.10;97.70;;;;;;5004923;28;20503;-87
2023/09/17 22:07:13;;;;;;;7.23;5.20;;;24.90;97.90;;;;;;2816082;23;20571;-87
2023/09/17 22:10:17;;;;;;;5.67;4.90;;;24.80;98.20;;;;;;5012646;28;20458;-85
2023/09/17 22:12:59;;;;;;;4.80;4.30;;;24.90;97.90;;;;;;5011162;28;20528;-84
2023/09/17 22:15:52;;;;;;;7.53;4.77;;;24.80;98.30;;;;;;4982289;28;20563;-86
2023/09/17 22:18:50;;;;;;;5.83;5.30;;;24.90;98.20;;;;;;4991013;28;20460;-87
2023/09/17 22:21:48;;;;;;;5.40;4.90;;;24.90;98.10;;;;;;5009912;28;20474;-87
2023/09/17 22:25:13;;;;;;;5.93;4.97;;;24.70;98.30;;;;;;4990512;28;20459;-86
2023/09/17 22:28:09;;;;;;;4.90;4.40;;;24.50;98.60;;;;;;4996495;28;20466;-86
2023/09/17 22:30:58;;;;;;;7.73;5.50;;;24.70;98.70;;;;;;4993776;28;20442;-86
2023/09/17 22:33:36;;;;;;;6.60;4.70;;;24.60;98.70;;;;;;4980949;28;20505;-87
2023/09/17 22:36:26;;;;;;;5.83;5.03;;;24.50;98.90;;;;;;4992836;28;20859;-88
2023/09/17 22:39:50;;;;;;;;;;;;;;;;;;;;;
2023/09/17 22:42:55;;;;;;;5.33;4.83;;;24.50;99.00;;;;;;4986971;28;20490;-85
2023/09/17 22:46:13;;;;;;;6.60;5.07;;;24.40;99.20;;;;;;4910167;29;20515;-85
2023/09/17 22:49:33;;;;;;;;;;;;;;;;;;;;;
2023/09/17 22:52:44;;;;;;;6.13;5.43;;;24.30;99.30;;;;;;4906297;29;20488;-87
2023/09/17 22:55:41;;;;;;;8.03;5.20;;;24.30;99.40;;;;;;4899678;29;20520;-85
2023/09/17 22:58:57;;;;;;;11.70;5.60;;;24.40;99.00;;;;;;4898505;29;20495;-85
2023/09/17 23:02:25;;;;;;;6.20;4.90;;;24.40;99.00;;;;;;4911934;28;20550;-86
2023/09/17 23:05:18;;;;;;;5.90;5.30;;;24.40;99.20;;;;;;5117520;23;20585;-86
2023/09/17 23:08:41;;;;;;;5.70;5.30;;;24.50;99.00;;;;;;4999897;28;20463;-86
2023/09/17 23:15:56;;;;;;;7.47;5.93;;;24.20;99.30;;;;;;4910937;29;20484;-86
2023/09/17 23:19:05;;;;;;;6.50;5.90;;;24.10;99.40;;;;;;4899996;29;20477;-84
2023/09/17 23:22:32;;;;;;;6.27;4.40;;;24.30;99.20;;;;;;4923112;29;20506;-86
2023/09/17 23:25:54;;;;;;;7.47;5.70;;;24.20;99.30;;;;;;4916486;29;20511;-84
2023/09/17 23:29:07;;;;;;;7.20;4.63;;;24.00;99.10;;;;;;4889765;29;20490;-87
2023/09/17 23:32:14;;;;;;;6.20;5.17;;;23.90;99.60;;;;;;4954091;29;20846;-85
2023/09/17 23:39:33;;;;;;;6.87;5.20;;;23.70;99.90;;;;;;4919523;29;20532;-84
2023/09/17 23:49:53;;;;;;;7.33;5.20;;;23.80;99.90;;;;;;4999383;28;20454;-84
2023/09/17 23:56:11;;;;;;;6.90;5.60;;;23.70;99.70;;;;;;4994858;28;21027;-84
2023/09/17 23:59:28;;;;;;;;;;;;;;;;;;;;;
